Time;durP1;ratioP1;P1;durP2;ratioP2;P2;SDS_P1;SDS_P2;PMS_P1;PMS_P2;Temp;Humidity;BMP_temperature;BMP_pressure;BME280_temperature;BME280_humidity;BME280_pressure;Samples;Min_cycle;Max_cycle;Signal;HPM_P1;HPM_P2
2022/05/27 00:01:52;;;;;;;;;5.00;2.00;;;;;22.46;40.51;102043.00;4979252;28;45468;-55
2022/05/27 00:04:17;;;;;;;;;3.00;2.00;;;;;22.47;40.46;102055.28;4978171;28;58383;-54
2022/05/27 00:06:43;;;;;;;;;3.00;3.00;;;;;22.45;40.46;102050.03;4978531;28;45412;-56
2022/05/27 00:09:09;;;;;;;;;3.00;1.00;;;;;22.45;40.47;102041.28;4978629;28;45338;-53
2022/05/27 00:11:34;;;;;;;;;0.00;0.00;;;;;22.46;40.46;102048.28;4978801;28;45278;-54
2022/05/27 00:14:00;;;;;;;;;1.00;1.00;;;;;22.46;40.24;102045.63;4978560;28;46760;-53
2022/05/27 00:16:27;;;;;;;;;4.00;2.00;;;;;22.45;40.19;102044.75;4978730;28;45708;-53
2022/05/27 00:18:52;;;;;;;;;3.00;1.75;;;;;22.44;40.36;102048.31;4978875;28;45283;-56
2022/05/27 00:21:17;;;;;;;;;1.00;1.00;;;;;22.42;40.45;102030.84;4978711;28;45228;-57
2022/05/27 00:23:43;;;;;;;;;2.00;2.00;;;;;22.44;40.21;102040.41;4978268;28;45362;-56
2022/05/27 00:26:09;;;;;;;;;1.00;1.00;;;;;22.43;40.35;102036.06;4978253;28;45336;-55
2022/05/27 00:28:35;;;;;;;;;0.00;0.00;;;;;22.42;40.13;102036.13;4978411;28;45402;-56
2022/05/27 00:31:03;;;;;;;;;2.75;1.00;;;;;22.44;40.27;102036.91;4978519;28;45457;-56
2022/05/27 00:33:28;;;;;;;;;2.00;1.00;;;;;22.40;40.32;102025.59;4977951;28;46582;-57
2022/05/27 00:35:54;;;;;;;;;2.00;1.00;;;;;22.42;40.28;102025.56;4978306;28;45535;-57
2022/05/27 00:38:19;;;;;;;;;1.00;1.00;;;;;22.41;40.26;102027.34;4978164;28;45290;-57
2022/05/27 00:40:48;;;;;;;;;1.25;1.25;;;;;22.41;40.21;102018.56;4978090;28;45571;-56
2022/05/27 00:43:14;;;;;;;;;3.75;1.00;;;;;22.41;40.15;102016.78;4992598;28;45390;-57
2022/05/27 00:45:43;;;;;;;;;2.00;1.00;;;;;22.40;40.14;102015.03;4977908;28;45767;-57
2022/05/27 00:48:19;;;;;;;;;1.00;1.00;;;;;22.41;40.14;102015.91;4976872;28;45379;-55
2022/05/27 00:50:48;;;;;;;;;1.00;1.00;;;;;22.39;40.33;102003.59;4978273;28;45494;-57
2022/05/27 00:53:19;;;;;;;;;0.50;0.25;;;;;22.39;40.20;102011.53;4977942;28;46076;-56
2022/05/27 00:55:49;;;;;;;;;1.00;1.00;;;;;22.40;40.27;102015.03;4977951;28;45256;-56
2022/05/27 00:58:29;;;;;;;;;1.00;1.00;;;;;22.39;40.19;102015.97;4977955;28;45304;-56
2022/05/27 01:00:55;;;;;;;;;2.50;1.00;;;;;22.38;40.44;102017.72;4978482;28;45966;-57
2022/05/27 01:03:24;;;;;;;;;1.50;1.00;;;;;22.39;39.98;102015.97;4977832;28;45575;-56
2022/05/27 01:05:50;;;;;;;;;1.25;1.00;;;;;22.38;40.14;102011.59;4977788;28;45364;-54
2022/05/27 01:08:19;;;;;;;;;2.00;1.00;;;;;22.38;40.14;102014.25;4977842;28;45417;-56
2022/05/27 01:10:59;;;;;;;;;1.75;1.00;;;;;22.38;40.13;102011.59;4977954;28;45667;-56
2022/05/27 01:14:02;;;;;;;;;1.50;1.00;;;;;22.37;40.05;102013.41;4977844;28;45387;-55
2022/05/27 01:16:41;;;;;;;;;2.00;0.00;;;;;22.37;40.30;102010.75;4978055;28;45744;-55
2022/05/27 01:22:40;;;;;;;;;1.00;1.00;;;;;22.36;40.34;102005.53;4977727;28;45353;-57
2022/05/27 01:25:30;;;;;;;;;1.00;1.00;;;;;22.34;40.36;102000.31;4977379;28;45515;-58
2022/05/27 01:28:14;;;;;;;;;1.00;0.50;;;;;22.34;40.26;102010.00;4977698;28;45398;-55
2022/05/27 01:30:48;;;;;;;;;2.00;1.00;;;;;22.31;39.80;101997.81;4977607;28;45255;-57
2022/05/27 01:33:31;;;;;;;;;1.50;1.50;;;;;22.34;40.28;102004.72;4977687;28;45356;-56
2022/05/27 01:36:09;;;;;;;;;1.00;1.00;;;;;22.34;40.23;102004.72;4977616;28;45571;-54
2022/05/27 01:38:46;;;;;;;;;3.00;0.50;;;;;22.33;40.19;102001.25;4977180;28;45385;-56
2022/05/27 01:41:27;;;;;;;;;1.00;1.00;;;;;22.32;40.17;101999.53;4977170;28;45496;-56
2022/05/27 01:44:11;;;;;;;;;2.00;1.00;;;;;22.31;40.14;101995.16;4977561;28;45345;-57
2022/05/27 01:46:47;;;;;;;;;2.75;1.00;;;;;22.32;40.20;101996.88;4977059;28;45694;-57
2022/05/27 01:49:22;;;;;;;;;1.00;1.00;;;;;22.32;40.14;101996.03;4977097;28;45468;-57
2022/05/27 01:52:19;;;;;;;;;1.00;1.00;;;;;22.31;40.36;101997.81;4977124;28;45341;-55
2022/05/27 01:54:55;;;;;;;;;1.00;1.00;;;;;22.30;40.38;102005.81;4976281;28;45380;-57
2022/05/27 01:57:28;;;;;;;;;2.00;1.00;;;;;22.30;40.30;102006.66;4976972;28;46249;-53
2022/05/27 02:00:10;;;;;;;;;2.00;2.00;;;;;22.29;40.45;102001.44;4976778;28;45887;-54
2022/05/27 02:02:40;;;;;;;;;4.50;1.00;;;;;22.29;40.33;101994.38;4977048;28;45415;-53
2022/05/27 02:05:18;;;;;;;;;1.50;1.50;;;;;22.28;40.19;101995.28;4977364;28;45333;-55
2022/05/27 02:07:47;;;;;;;;;1.00;1.00;;;;;22.29;40.27;102001.44;4976890;28;45668;-54
2022/05/27 02:10:40;;;;;;;;;1.75;1.75;;;;;22.28;40.21;101999.72;4976867;28;45344;-57
2022/05/27 02:13:40;;;;;;;;;2.00;1.00;;;;;22.29;40.14;101998.81;4977107;28;45413;-54
2022/05/27 02:16:11;;;;;;;;;1.00;1.00;;;;;22.27;40.09;101987.44;4976817;28;45333;-56
2022/05/27 02:18:44;;;;;;;;;0.75;0.75;;;;;22.27;40.19;101993.56;4976591;28;47763;-54
2022/05/27 02:21:22;;;;;;;;;2.75;1.00;;;;;22.27;40.15;101998.00;4976807;28;45263;-57
2022/05/27 02:23:56;;;;;;;;;0.75;0.75;;;;;22.26;40.36;101991.88;4977012;28;45377;-54
2022/05/27 02:26:27;;;;;;;;;2.00;2.00;;;;;22.27;40.13;102003.28;4976936;28;45447;-56
2022/05/27 02:28:59;;;;;;;;;1.00;1.00;;;;;22.26;40.04;101996.28;4976656;28;47118;-55
2022/05/27 02:31:28;;;;;;;;;2.00;1.00;;;;;22.26;40.15;102002.44;4976702;28;45780;-53
2022/05/27 02:37:11;;;;;;;;;1.00;1.00;;;;;22.26;40.15;102001.56;4976783;28;45370;-56
2022/05/27 02:39:37;;;;;;;;;3.00;1.25;;;;;22.23;40.05;101992.00;4976469;28;45433;-57
2022/05/27 02:42:10;;;;;;;;;1.50;1.50;;;;;22.20;40.16;101989.50;4976546;28;45596;-55
2022/05/27 02:44:56;;;;;;;;;3.50;1.00;;;;;22.24;40.33;101999.84;4976756;28;45320;-54
2022/05/27 02:47:46;;;;;;;;;1.75;1.75;;;;;22.23;40.35;101998.13;4976771;28;45408;-54
2022/05/27 02:50:39;;;;;;;;;2.00;1.00;;;;;22.24;40.09;101996.38;4976350;28;45429;-54
2022/05/27 02:53:23;;;;;;;;;2.75;1.25;;;;;22.23;40.21;102006.06;4976320;28;45365;-53
2022/05/27 02:55:59;;;;;;;;;1.25;1.00;;;;;22.21;40.35;101994.69;4976188;28;45316;-53
2022/05/27 02:58:24;;;;;;;;;2.00;1.00;;;;;22.21;40.12;101997.34;4976603;28;45364;-52
2022/05/27 03:00:50;;;;;;;;;1.25;1.25;;;;;22.20;40.19;101994.78;4976119;28;45464;-54
2022/05/27 03:03:15;;;;;;;;;1.25;1.25;;;;;22.21;40.28;101994.69;4976356;28;45400;-55
2022/05/27 03:05:50;;;;;;;;;1.00;1.00;;;;;22.21;40.24;101993.84;4977851;28;45803;-53
2022/05/27 03:08:26;;;;;;;;;2.75;1.75;;;;;22.21;40.04;102002.63;4979917;28;45306;-54
2022/05/27 03:11:15;;;;;;;;;1.25;1.25;;;;;22.21;40.16;102004.41;4979456;28;46236;-53
2022/05/27 03:14:18;;;;;;;;;1.00;1.00;;;;;22.21;40.35;102002.63;4979500;28;45404;-56
2022/05/27 03:16:51;;;;;;;;;1.25;1.00;;;;;22.19;40.38;102004.50;4979464;28;45286;-56
2022/05/27 03:19:56;;;;;;;;;1.00;1.00;;;;;22.19;40.44;101995.69;4979544;28;45384;-56
2022/05/27 03:22:39;;;;;;;;;2.00;2.00;;;;;22.20;40.25;102006.22;4956121;28;48696;-55
2022/05/27 03:25:23;;;;;;;;;5.25;1.75;;;;;22.19;40.19;102000.97;4979594;28;45858;-56
2022/05/27 03:28:10;;;;;;;;;1.25;1.25;;;;;22.19;40.45;102004.50;4979431;28;45419;-55
2022/05/27 03:31:13;;;;;;;;;3.00;1.00;;;;;22.16;40.14;102003.78;4979753;28;45651;-55
2022/05/27 03:33:51;;;;;;;;;1.00;1.00;;;;;22.18;40.24;102005.41;4979030;28;46710;-55
2022/05/27 03:36:36;;;;;;;;;1.25;1.25;;;;;22.18;40.46;102010.69;4979099;28;45245;-53
2022/05/27 03:39:35;;;;;;;;;1.25;1.25;;;;;22.17;40.40;102000.19;4979049;28;45218;-56
2022/05/27 03:42:05;;;;;;;;;1.00;1.00;;;;;22.16;40.09;101995.88;4969410;28;45284;-55
2022/05/27 03:44:31;;;;;;;;;3.00;2.00;;;;;22.16;40.19;101991.44;4979149;28;46571;-53
2022/05/27 03:46:58;;;;;;;;;4.00;1.00;;;;;22.16;40.07;102002.00;4978898;28;45230;-56
2022/05/27 03:49:25;;;;;;;;;1.25;1.00;;;;;22.14;40.20;101995.91;4979113;28;45410;-52
2022/05/27 03:51:53;;;;;;;;;2.00;2.00;;;;;22.16;40.41;102002.00;4979131;28;45528;-55
2022/05/27 03:54:20;;;;;;;;;2.00;1.25;;;;;22.15;40.42;102005.53;4978785;28;45402;-54
2022/05/27 03:56:46;;;;;;;;;1.75;1.75;;;;;22.16;40.39;102002.00;4978950;28;45641;-55
2022/05/27 03:59:14;;;;;;;;;3.50;2.00;;;;;22.14;40.21;102003.84;4978862;28;46557;-57
2022/05/27 04:01:42;;;;;;;;;1.50;1.50;;;;;22.14;40.26;101998.56;4979052;28;45516;-56
2022/05/27 04:04:15;;;;;;;;;3.00;2.00;;;;;22.15;40.10;102015.28;4978817;28;45498;-54
2022/05/27 04:06:41;;;;;;;;;3.25;2.00;;;;;22.15;40.28;102004.72;4978432;28;45874;-55
2022/05/27 04:09:06;;;;;;;;;2.00;2.00;;;;;22.15;40.16;102004.72;4978871;28;45361;-52
2022/05/27 04:11:32;;;;;;;;;3.50;2.25;;;;;22.15;40.07;102005.53;4978836;28;45567;-53
2022/05/27 04:13:58;;;;;;;;;2.75;2.25;;;;;22.14;40.14;102005.63;4978428;28;46212;-55
2022/05/27 04:16:24;;;;;;;;;2.50;1.75;;;;;22.14;40.29;102009.13;4977724;28;45356;-55
2022/05/27 04:18:50;;;;;;;;;1.50;1.50;;;;;22.13;40.30;102006.56;4978377;28;45355;-54
2022/05/27 04:21:16;;;;;;;;;2.25;2.00;;;;;22.13;40.15;102002.13;4978585;28;45505;-55
2022/05/27 04:23:41;;;;;;;;;2.00;1.75;;;;;22.13;40.01;102012.69;4978334;28;46300;-54
2022/05/27 04:26:07;;;;;;;;;1.50;1.50;;;;;22.14;40.21;102009.13;4977347;28;45682;-54
2022/05/27 04:28:33;;;;;;;;;3.25;2.50;;;;;22.13;40.14;102017.09;4978406;28;45311;-53
2022/05/27 04:31:00;;;;;;;;;2.00;2.00;;;;;22.12;40.13;102021.50;4978440;28;45666;-54
2022/05/27 04:33:27;;;;;;;;;2.00;2.00;;;;;22.11;40.28;102017.16;4978196;28;46610;-56
2022/05/27 04:35:54;;;;;;;;;4.25;2.00;;;;;22.14;40.36;102024.09;4977941;28;45380;-55
2022/05/27 04:38:21;;;;;;;;;2.00;2.00;;;;;22.12;40.30;102013.59;4978272;28;45469;-56
2022/05/27 04:40:46;;;;;;;;;6.00;2.00;;;;;22.13;40.26;102017.09;4978127;28;45492;-56
2022/05/27 04:43:12;;;;;;;;;2.50;2.50;;;;;22.11;40.34;102019.78;4978086;28;47313;-55
2022/05/27 04:45:38;;;;;;;;;2.25;2.25;;;;;22.08;40.39;102007.59;4978308;28;45428;-55
2022/05/27 04:48:04;;;;;;;;;4.00;3.00;;;;;22.09;40.25;102016.41;4978010;28;45222;-55
2022/05/27 04:50:29;;;;;;;;;3.00;3.00;;;;;22.11;40.34;102014.53;4978250;28;45401;-57
2022/05/27 04:52:55;;;;;;;;;3.00;3.00;;;;;22.11;40.11;102018.94;4977833;28;46697;-55
2022/05/27 04:55:22;;;;;;;;;4.00;3.00;;;;;22.11;40.54;102014.53;4977897;28;45251;-54
2022/05/27 04:57:51;;;;;;;;;2.00;2.00;;;;;22.08;39.98;102015.53;4977933;28;45436;-55
2022/05/27 05:00:16;;;;;;;;;4.25;3.50;;;;;22.11;40.30;102018.94;4978059;28;45353;-52
2022/05/27 05:02:42;;;;;;;;;5.00;3.75;;;;;22.07;40.31;102018.22;4977712;28;46266;-51
2022/05/27 05:05:14;;;;;;;;;4.50;3.00;;;;;22.09;40.39;102019.03;4977973;28;45262;-55
2022/05/27 05:07:40;;;;;;;;;3.50;3.50;;;;;22.09;40.28;102011.94;4978158;28;45300;-55
2022/05/27 05:10:08;;;;;;;;;5.25;4.00;;;;;22.09;40.49;102016.41;4977964;28;45244;-54
2022/05/27 05:12:33;;;;;;;;;5.25;5.25;;;;;22.04;40.70;102013.06;4977488;28;45632;-55
2022/05/27 05:14:59;;;;;;;;;4.00;4.00;;;;;22.04;40.83;102026.28;4977472;28;45492;-56
2022/05/27 05:17:24;;;;;;;;;71.50;57.50;;;;;21.98;41.20;102019.47;4977585;28;45199;-54
2022/05/27 05:19:53;;;;;;;;;172.75;161.25;;;;;22.00;41.01;102027.31;4977656;28;45693;-54
2022/05/27 05:22:20;;;;;;;;;113.75;110.50;;;;;21.99;41.11;102031.75;4977325;28;46651;-56
2022/05/27 05:24:45;;;;;;;;;83.00;79.50;;;;;21.96;41.07;102031.03;4977194;28;45467;-52
2022/05/27 05:27:10;;;;;;;;;70.25;58.50;;;;;21.95;41.35;102030.16;4977780;28;45332;-55
2022/05/27 05:29:36;;;;;;;;;68.00;51.75;;;;;21.93;40.95;102022.31;4977395;28;45218;-53
2022/05/27 05:32:01;;;;;;;;;64.25;52.25;;;;;21.90;41.04;102016.31;4977104;28;46497;-52
2022/05/27 05:34:27;;;;;;;;;66.50;52.75;;;;;21.93;41.43;102022.31;4977284;28;45320;-53
2022/05/27 05:36:54;;;;;;;;;64.00;51.33;;;;;21.95;41.08;102024.03;4977129;28;45333;-54
2022/05/27 05:39:20;;;;;;;;;62.50;48.50;;;;;21.96;41.38;102023.13;4977360;28;45290;-56
2022/05/27 05:42:05;;;;;;;;;54.75;44.25;;;;;21.97;41.08;102022.19;4976946;28;45455;-52
2022/05/27 05:44:31;;;;;;;;;49.00;40.75;;;;;21.98;41.16;102027.41;4977289;28;45396;-53
2022/05/27 05:46:56;;;;;;;;;50.75;40.75;;;;;21.97;41.26;102020.41;4977189;28;45341;-54
2022/05/27 05:49:22;;;;;;;;;44.00;38.50;;;;;21.98;40.83;102024.75;4977238;28;45451;-54
2022/05/27 05:51:48;;;;;;;;;41.00;35.75;;;;;21.98;40.99;102022.13;4976957;28;45486;-54
2022/05/27 05:54:14;;;;;;;;;44.00;36.75;;;;;22.00;41.19;102020.28;4977272;28;45469;-55
2022/05/27 05:56:39;;;;;;;;;33.50;31.00;;;;;21.98;41.26;102021.28;4977290;28;45365;-55
2022/05/27 05:59:05;;;;;;;;;40.50;33.25;;;;;22.01;41.18;102029.03;4977150;28;45431;-55
2022/05/27 06:01:30;;;;;;;;;36.25;30.50;;;;;22.01;41.09;102023.75;4976608;28;45696;-55
2022/05/27 06:03:56;;;;;;;;;31.00;26.67;;;;;22.01;41.30;102029.03;4976706;28;50501;-53
2022/05/27 06:06:22;;;;;;;;;25.50;25.50;;;;;22.01;41.21;102029.03;4976907;28;45369;-55
2022/05/27 06:08:47;;;;;;;;;25.25;22.25;;;;;22.02;41.08;102028.13;4977022;28;45545;-55
2022/05/27 06:11:13;;;;;;;;;24.25;23.50;;;;;22.02;41.21;102026.34;4976835;28;45296;-56
2022/05/27 06:13:41;;;;;;;;;23.50;21.75;;;;;22.02;41.14;102028.13;4975495;28;45932;-52
2022/05/27 06:16:09;;;;;;;;;22.50;21.50;;;;;22.01;41.28;102027.28;4976796;28;45399;-54
2022/05/27 06:18:35;;;;;;;;;24.75;22.75;;;;;22.01;41.17;102032.56;4976771;28;45638;-56
2022/05/27 06:21:01;;;;;;;;;21.00;18.25;;;;;22.03;40.94;102032.47;4976655;28;45665;-56
2022/05/27 06:23:29;;;;;;;;;23.75;18.75;;;;;22.03;41.14;102029.84;4976570;28;45178;-54
2022/05/27 06:26:01;;;;;;;;;20.50;19.00;;;;;22.03;41.29;102037.75;4976596;28;45262;-52
2022/05/27 06:36:43;;;;;;;;;12.00;11.75;;;;;22.02;41.50;102036.03;4976761;28;45286;-55
2022/05/27 06:39:09;;;;;;;;;12.00;11.00;;;;;22.03;41.06;102037.75;4959381;28;45509;-55
2022/05/27 06:41:34;;;;;;;;;11.50;9.50;;;;;22.03;41.37;102038.63;4979241;28;45412;-56
2022/05/27 06:44:01;;;;;;;;;13.00;10.00;;;;;22.03;41.19;102032.47;4979857;28;45432;-52
2022/05/27 06:46:28;;;;;;;;;10.75;9.75;;;;;22.04;41.46;102039.47;4980011;28;45335;-52
2022/05/27 06:48:53;;;;;;;;;8.75;8.75;;;;;22.02;41.38;102042.19;4980135;28;45530;-55
2022/05/27 06:51:19;;;;;;;;;10.50;7.50;;;;;22.02;41.28;102038.69;4979732;28;46519;-54
2022/05/27 06:53:45;;;;;;;;;8.00;8.00;;;;;22.02;41.40;102042.19;4980023;28;45298;-55
2022/05/27 06:56:11;;;;;;;;;8.00;6.00;;;;;22.03;41.20;102043.03;4979905;28;45375;-53
2022/05/27 06:58:37;;;;;;;;;8.50;7.00;;;;;22.04;41.12;102042.13;4979846;28;45534;-54
2022/05/27 07:01:03;;;;;;;;;8.00;5.50;;;;;22.03;41.11;102043.03;4979583;28;45475;-56
2022/05/27 07:03:29;;;;;;;;;7.00;7.00;;;;;22.02;41.36;102042.19;4994656;28;45459;-53
2022/05/27 07:05:54;;;;;;;;;8.50;7.50;;;;;22.05;41.25;102041.19;4979690;28;45444;-54
2022/05/27 07:08:19;;;;;;;;;5.75;5.75;;;;;22.02;41.52;102043.97;4979747;28;45626;-56
2022/05/27 07:10:45;;;;;;;;;7.50;5.75;;;;;22.02;41.31;102041.31;4979692;28;45272;-55
2022/05/27 07:13:10;;;;;;;;;5.50;3.75;;;;;21.99;41.69;102049.38;4979368;28;45302;-55
2022/05/27 07:15:36;;;;;;;;;4.00;4.00;;;;;21.97;41.74;102049.44;4979442;28;45270;-56
2022/05/27 07:18:08;;;;;;;;;5.00;5.00;;;;;21.93;41.86;102056.63;4979434;28;45633;-55
2022/05/27 07:20:36;;;;;;;;;6.25;5.00;;;;;21.91;41.97;102047.06;4979232;28;47100;-55
2022/05/27 07:23:02;;;;;;;;;5.50;5.25;;;;;21.91;42.03;102047.91;4979182;28;45341;-55
2022/05/27 07:25:27;;;;;;;;;13.00;7.25;;;;;21.91;41.67;102047.91;4979377;28;45407;-57
2022/05/27 07:27:53;;;;;;;;;11.75;8.00;;;;;21.92;41.92;102041.72;4979575;28;45483;-56
2022/05/27 07:30:18;;;;;;;;;10.50;8.25;;;;;21.93;42.15;102032.88;4979182;28;45419;-54
2022/05/27 07:32:44;;;;;;;;;13.50;7.50;;;;;21.93;41.84;102027.59;4979073;28;45488;-55
2022/05/27 07:35:10;;;;;;;;;7.75;7.50;;;;;21.96;41.88;102036.31;4979213;28;45373;-57
2022/05/27 07:37:36;;;;;;;;;8.75;6.75;;;;;21.98;41.76;102042.38;4979178;28;45607;-55
2022/05/27 07:40:02;;;;;;;;;9.75;8.00;;;;;21.98;41.58;102035.31;4978922;28;47676;-58
2022/05/27 07:42:27;;;;;;;;;11.25;8.75;;;;;22.00;41.97;102043.16;4978825;28;45259;-57
2022/05/27 07:44:53;;;;;;;;;8.75;6.00;;;;;21.99;42.10;102044.97;4978995;28;45359;-55
2022/05/27 07:47:18;;;;;;;;;14.75;8.50;;;;;22.02;42.06;102051.88;4994495;28;45647;-57
2022/05/27 07:49:44;;;;;;;;;9.75;8.50;;;;;22.01;41.91;102034.31;4978803;28;45544;-56
2022/05/27 07:52:10;;;;;;;;;10.25;8.00;;;;;22.02;41.56;102030.75;4977565;28;45294;-57
2022/05/27 07:54:35;;;;;;;;;7.75;7.75;;;;;22.02;41.79;102036.91;4979010;28;45638;-58
2022/05/27 07:57:02;;;;;;;;;10.75;7.50;;;;;22.03;42.09;102037.75;4994142;28;45571;-57
2022/05/27 07:59:28;;;;;;;;;9.50;9.00;;;;;22.03;41.99;102038.63;4978470;28;46856;-60
2022/05/27 08:01:53;;;;;;;;;9.75;8.50;;;;;22.04;41.92;102034.19;4978663;28;45742;-56
2022/05/27 08:04:19;;;;;;;;;6.75;6.50;;;;;22.04;41.72;102034.19;4979110;28;45404;-55
2022/05/27 08:06:45;;;;;;;;;9.00;6.25;;;;;22.02;41.75;102034.28;4979059;28;45563;-57
2022/05/27 08:09:14;;;;;;;;;7.00;7.00;;;;;22.05;41.69;102041.19;4978425;28;46180;-57
2022/05/27 08:11:40;;;;;;;;;8.50;8.00;;;;;22.04;41.96;102035.06;4978511;28;45868;-56
2022/05/27 08:14:06;;;;;;;;;9.75;8.50;;;;;22.06;41.74;102049.03;4978526;28;45290;-55
2022/05/27 08:16:33;;;;;;;;;8.75;7.00;;;;;22.06;41.85;102042.91;4978610;28;45583;-57
2022/05/27 08:18:59;;;;;;;;;5.00;4.00;;;;;22.05;41.77;102052.59;4978170;28;45398;-56
2022/05/27 08:21:25;;;;;;;;;7.25;6.50;;;;;22.07;41.70;102045.47;4978312;28;45396;-55
2022/05/27 08:23:51;;;;;;;;;10.50;7.00;;;;;22.07;41.33;102040.19;4978700;28;45338;-56
2022/05/27 08:26:16;;;;;;;;;10.00;7.00;;;;;22.03;41.89;102035.13;4978472;28;45557;-55
2022/05/27 08:28:42;;;;;;;;;11.50;7.00;;;;;22.08;41.85;102041.91;4978182;28;46616;-55
2022/05/27 08:31:08;;;;;;;;;10.25;7.25;;;;;22.07;41.67;102031.44;4978154;28;45830;-57
2022/05/27 09:03:14;;;;;;;;;5.75;4.25;;;;;22.04;42.58;102044.75;4979933;28;45450;-62
2022/05/27 09:05:53;;;;;;;;;7.00;6.00;;;;;22.04;42.35;102034.19;5002593;28;45461;-59
2022/05/27 09:08:24;;;;;;;;;4.75;4.75;;;;;22.05;42.40;102038.56;4994299;28;45233;-60
2022/05/27 09:11:01;;;;;;;;;5.00;3.75;;;;;22.09;42.53;102048.06;4997389;28;45402;-61
2022/05/27 09:13:34;;;;;;;;;6.50;5.00;;;;;22.08;42.34;102056.91;4980992;28;45379;-61
2022/05/27 09:16:31;;;;;;;;;4.75;4.00;;;;;22.11;42.77;102051.47;4980995;28;45432;-60
2022/05/27 09:19:15;;;;;;;;;5.50;4.25;;;;;22.12;42.44;102055.84;4980339;28;45738;-60
2022/05/27 09:21:47;;;;;;;;;3.75;3.75;;;;;22.13;42.63;102054.91;4985580;28;45446;-59
2022/05/27 09:24:22;;;;;;;;;4.50;4.00;;;;;22.15;42.81;102055.72;5001135;28;45573;-61
2022/05/27 09:26:58;;;;;;;;;7.00;5.75;;;;;22.15;42.74;102046.94;5007970;28;46193;-58
2022/05/27 09:29:36;;;;;;;;;4.50;4.25;;;;;22.16;42.96;102048.66;4984224;28;45411;-60
2022/05/27 09:32:16;;;;;;;;;5.75;4.00;;;;;22.17;42.84;102053.00;4982345;28;45230;-60
2022/05/27 09:34:44;;;;;;;;;4.00;3.75;;;;;22.18;42.81;102050.31;4980563;28;45381;-59
2022/05/27 09:37:15;;;;;;;;;5.50;4.00;;;;;22.20;43.07;102052.88;4979807;28;45415;-58
2022/05/27 09:39:40;;;;;;;;;5.00;4.00;;;;;22.19;43.00;102054.69;4979534;28;45941;-60
2022/05/27 09:42:25;;;;;;;;;5.00;5.00;;;;;22.20;42.96;102044.97;4981078;28;45708;-58
2022/05/27 09:44:50;;;;;;;;;6.50;5.00;;;;;22.20;43.08;102051.13;4983589;28;45299;-60
2022/05/27 09:47:17;;;;;;;;;4.00;4.00;;;;;22.20;43.02;102051.13;4983398;28;45310;-59
2022/05/27 09:49:45;;;;;;;;;5.50;4.75;;;;;22.20;43.15;102042.31;4983810;28;45434;-59
2022/05/27 09:52:11;;;;;;;;;5.00;3.75;;;;;22.21;43.00;102052.78;4982397;28;45294;-60
2022/05/27 09:54:54;;;;;;;;;5.00;5.00;;;;;22.21;42.81;102050.16;4979707;28;45222;-59
2022/05/27 09:57:25;;;;;;;;;6.33;5.67;;;;;22.23;42.86;102044.84;4983243;28;45345;-60
2022/05/27 09:59:56;;;;;;;;;3.25;3.25;;;;;22.23;43.24;102055.41;4998621;28;45781;-58
2022/05/27 10:02:35;;;;;;;;;5.25;4.00;;;;;22.22;43.25;102053.69;5000459;28;45379;-59
2022/05/27 10:05:22;;;;;;;;;5.50;4.00;;;;;22.23;42.98;102061.50;4999375;28;45353;-60
2022/05/27 10:07:59;;;;;;;;;5.25;5.25;;;;;22.23;43.22;102047.47;4998362;28;46434;-60
2022/05/27 10:10:28;;;;;;;;;5.75;4.50;;;;;22.24;43.33;102049.19;4998785;28;45851;-59
2022/05/27 10:12:58;;;;;;;;;5.00;5.00;;;;;22.21;43.31;102042.22;4998751;28;45322;-59
2022/05/27 10:15:30;;;;;;;;;5.75;5.00;;;;;22.23;43.15;102045.66;4999392;28;45315;-60
2022/05/27 10:18:12;;;;;;;;;4.50;4.50;;;;;22.24;43.69;102039.47;5001904;28;46575;-59
2022/05/27 10:20:38;;;;;;;;;4.00;3.00;;;;;22.23;43.65;102029.81;5002238;28;45775;-58
2022/05/27 10:23:22;;;;;;;;;3.50;3.50;;;;;22.24;43.31;102028.91;5001303;28;45202;-60
2022/05/27 10:25:47;;;;;;;;;4.00;4.00;;;;;22.24;43.29;102026.25;5002400;28;45258;-59
2022/05/27 10:28:24;;;;;;;;;4.00;4.00;;;;;22.26;43.41;102013.00;5000817;28;45342;-58
2022/05/27 10:31:14;;;;;;;;;4.00;4.00;;;;;22.27;43.49;102005.94;5000112;28;45933;-58
2022/05/27 10:33:43;;;;;;;;;4.50;3.25;;;;;22.29;43.50;102012.00;5001487;28;45814;-60
2022/05/27 10:36:23;;;;;;;;;4.00;3.50;;;;;22.29;43.68;102020.78;5001455;28;45163;-60
2022/05/27 10:39:15;;;;;;;;;2.25;1.00;;;;;22.29;43.48;102012.00;5001324;28;46417;-58
2022/05/27 10:41:59;;;;;;;;;5.00;4.00;;;;;22.31;43.52;102018.94;5001263;28;45246;-59
2022/05/27 10:44:53;;;;;;;;;5.25;3.75;;;;;22.32;43.24;102025.94;5001814;28;45281;-60
2022/05/27 10:47:34;;;;;;;;;4.25;3.50;;;;;22.33;43.46;102018.84;5002230;28;45352;-60
2022/05/27 10:50:05;;;;;;;;;5.25;3.00;;;;;22.34;43.11;102016.16;5004175;28;45656;-58
2022/05/27 10:52:53;;;;;;;;;3.50;3.00;;;;;22.33;43.24;102019.72;5002753;28;45225;-60
2022/05/27 10:55:28;;;;;;;;;6.00;4.25;;;;;22.34;43.40;102017.94;5001778;28;45334;-59
2022/05/27 11:04:31;;;;;;;;;4.00;4.00;;;;;22.35;43.61;102023.16;5001021;28;45345;-60
2022/05/27 11:07:11;;;;;;;;;4.75;3.00;;;;;22.38;43.21;102022.16;5001195;28;45428;-59
2022/05/27 11:09:42;;;;;;;;;4.00;3.25;;;;;22.38;43.40;102024.81;5001172;28;45332;-58
2022/05/27 11:15:49;;;;;;;;;5.75;3.00;;;;;22.35;43.36;102017.00;4995920;28;45910;-60
2022/05/27 11:18:31;;;;;;;;;3.50;3.00;;;;;22.38;43.41;102016.88;5004069;28;45290;-59
2022/05/27 11:21:28;;;;;;;;;3.75;3.00;;;;;22.38;43.24;102017.72;5023609;28;44748;-58
2022/05/27 11:24:02;;;;;;;;;3.50;3.50;;;;;22.38;43.25;102016.88;5008664;28;45426;-59
2022/05/27 11:27:04;;;;;;;;;3.00;3.00;;;;;22.38;43.43;102019.53;4999829;28;45408;-61
2022/05/27 11:29:42;;;;;;;;;2.50;2.50;;;;;22.38;43.30;102014.25;4999956;28;45453;-60
2022/05/27 11:32:15;;;;;;;;;3.50;3.50;;;;;22.38;43.35;102023.00;5001020;28;45309;-60
2022/05/27 11:35:10;;;;;;;;;4.50;3.25;;;;;22.38;43.54;102012.44;5002179;28;46524;-59
2022/05/27 11:37:55;;;;;;;;;3.00;3.00;;;;;22.36;43.49;102011.69;5000932;28;45328;-58
2022/05/27 11:40:37;;;;;;;;;4.50;2.00;;;;;22.39;43.41;102008.03;5000948;28;45420;-59
2022/05/27 11:43:24;;;;;;;;;4.75;3.50;;;;;22.40;43.55;102017.69;5001574;28;45417;-57
2022/05/27 11:46:24;;;;;;;;;3.75;3.75;;;;;22.40;43.57;102004.47;5003732;28;46357;-59
2022/05/27 11:49:00;;;;;;;;;3.50;3.00;;;;;22.38;43.61;102001.88;4993329;28;45270;-58
2022/05/27 11:51:44;;;;;;;;;2.00;2.00;;;;;22.39;43.56;102000.94;5001066;28;45376;-60
2022/05/27 11:54:33;;;;;;;;;4.50;4.00;;;;;22.39;43.44;101997.47;5000090;28;45587;-58
2022/05/27 11:57:15;;;;;;;;;3.50;2.75;;;;;22.40;43.50;101999.19;5018505;28;47216;-57
2022/05/27 11:59:50;;;;;;;;;3.00;3.00;;;;;22.38;43.50;102001.88;5003712;28;45450;-56
2022/05/27 12:02:48;;;;;;;;;3.00;3.00;;;;;22.40;43.75;102001.81;5003969;28;45328;-58
2022/05/27 12:05:22;;;;;;;;;2.75;2.75;;;;;22.39;43.64;102002.75;5000023;28;45488;-57
2022/05/27 12:08:05;;;;;;;;;3.25;2.50;;;;;22.39;43.63;101994.81;4999984;28;46292;-60
2022/05/27 12:10:46;;;;;;;;;4.00;4.00;;;;;22.39;43.37;101992.19;4999985;28;45530;-57
2022/05/27 12:13:32;;;;;;;;;4.00;3.00;;;;;22.42;43.68;101993.84;5000166;28;45447;-57
2022/05/27 12:16:00;;;;;;;;;5.75;3.00;;;;;22.42;43.78;101991.22;5000248;28;45300;-59
2022/05/27 12:18:39;;;;;;;;;3.00;3.00;;;;;22.40;43.59;101993.91;5015214;28;48063;-57
2022/05/27 12:21:08;;;;;;;;;4.00;4.00;;;;;22.42;43.64;101997.38;5000068;28;45791;-58
2022/05/27 12:23:37;;;;;;;;;3.25;3.25;;;;;22.43;43.58;101999.09;4999346;28;45313;-58
2022/05/27 12:26:03;;;;;;;;;3.00;3.00;;;;;22.43;43.41;101995.56;5002706;28;45327;-57
2022/05/27 12:28:32;;;;;;;;;3.25;3.25;;;;;22.43;43.61;101993.81;5001647;28;46489;-56
2022/05/27 12:31:00;;;;;;;;;3.25;3.25;;;;;22.42;43.64;101992.09;5000448;28;45368;-58
2022/05/27 12:33:28;;;;;;;;;4.25;4.00;;;;;22.43;43.56;101992.94;5000431;28;45348;-58
2022/05/27 12:36:01;;;;;;;;;3.00;3.00;;;;;22.42;43.56;101994.72;5000422;28;45491;-59
2022/05/27 12:38:33;;;;;;;;;3.50;3.50;;;;;22.43;43.88;101996.44;4998299;28;46502;-61
2022/05/27 12:41:07;;;;;;;;;2.25;2.25;;;;;22.43;43.65;101999.09;5001960;28;45636;-58